Terminal Aerodrome Forecast
Issued by NWS

Home | Current Version | Previous Version | Text Only | Print | Product List | Glossary On
Versions: 1 2 3 4 5 6 7 8 9 10 11 12 13 14 15 16 17 18 19 20 21 22 23 24
791
FTUS45 KRIW 220526
TAFPNA
TAF
KPNA 220526Z 2206/2306 VRB04KT 5SM -SHRASN SCT017 OVC030
     FM220900 VRB04KT P6SM VCSH BKN030
     FM221900 VRB06KT P6SM SCT030 BKN060
     FM230100 31005KT P6SM FEW080
     AMD LTD TO CLD VIS AND WIND=

USA.gov is the U.S. government's official web portal to all federal, state and local government web resources and services.